Postoak, Texas
Current Conditions -  °F | °C
As of 7:55 AM on Friday 31 Oct 2014 (Local Time) from K0F2 Reporting Station
Clear Clear  
Wind Chill: 43°   Ceiling: Unl
Heat Index: 48°   Visibility: 10mi
Dew Point: 39°   Wind: 13mph
Humidity: 70%   Direction: 350°N
Pressure: 30.32"   Gusts: 18mph
Location:  33.5529°N, 97.8448°W
Report Text: K0F2 311255Z AUTO 35011G16KT 10SM CLR 09/04 A3032 RMK AO2 T00900038
Loading
Personal Weather Stations






























Interactive Weather Map
Tropical Storm Tracking
New forecast layout! Learn more

10-Day Weather Forecast

Advertisements
Track Severe Weather on mobile